Time;durP1;ratioP1;P1;durP2;ratioP2;P2;SDS_P1;SDS_P2;PMS_P1;PMS_P2;Temp;Humidity;BMP_temperature;BMP_pressure;BME280_temperature;BME280_humidity;BME280_pressure;Samples;Min_cycle;Max_cycle;Signal;HPM_P1;HPM_P2
2021/05/11 00:01:30;;;;;;;;;;;;;;;21.70;65.03;100240.97;5111582;28;1349;-69
2021/05/11 00:04:15;;;;;;;;;;;;;;;21.69;65.50;100245.44;5095733;28;710;-70
2021/05/11 00:07:00;;;;;;;;;;;;;;;21.68;65.47;100242.88;5111017;28;1236;-70
2021/05/11 00:09:44;;;;;;;;;;;;;;;21.69;65.52;100261.34;5095797;28;687;-71
2021/05/11 00:12:30;;;;;;;;;;;;;;;21.68;65.47;100248.19;5110975;28;1066;-71
2021/05/11 00:15:16;;;;;;;;;;;;;;;21.68;65.51;100259.63;5111139;28;1228;-71
2021/05/11 00:18:01;;;;;;;;;;;;;;;21.68;65.04;100264.94;5095372;28;1910;-71
2021/05/11 00:20:45;;;;;;;;;;;;;;;21.69;65.28;100260.47;5095299;28;1345;-71
2021/05/11 00:23:30;;;;;;;;;;;;;;;21.67;65.46;100259.78;5111138;28;1129;-70
2021/05/11 00:26:15;;;;;;;;;;;;;;;21.67;65.42;100257.94;5095314;28;1343;-69
2021/05/11 00:29:00;;;;;;;;;;;;;;;21.67;65.38;100263.25;5110952;28;1066;-70
2021/05/11 00:31:45;;;;;;;;;;;;;;;21.67;65.37;100246.50;5110054;28;1291;-69
2021/05/11 00:34:29;;;;;;;;;;;;;;;21.65;65.32;100237.81;5094982;28;616;-71
2021/05/11 00:37:14;;;;;;;;;;;;;;;21.65;65.54;100227.22;5110508;28;1095;-71
2021/05/11 00:39:59;;;;;;;;;;;;;;;21.66;65.52;100219.16;5110237;28;1283;-70
2021/05/11 00:42:43;;;;;;;;;;;;;;;21.65;65.52;100219.25;5110432;28;1081;-69
2021/05/11 00:45:28;;;;;;;;;;;;;;;21.64;65.45;100214.94;5110153;28;1279;-69
2021/05/11 00:48:13;;;;;;;;;;;;;;;21.64;65.35;100218.41;5113597;27;1359;-70
2021/05/11 00:50:58;;;;;;;;;;;;;;;21.64;64.81;100214.94;5130783;27;1299;-70
2021/05/11 00:53:44;;;;;;;;;;;;;;;21.64;65.29;100223.72;5115136;27;983;-70
2021/05/11 00:56:29;;;;;;;;;;;;;;;21.63;64.96;100218.53;5130777;27;1215;-70
2021/05/11 00:59:20;;;;;;;;;;;;;;;21.62;64.88;100215.03;5114989;27;1905;-70
2021/05/11 01:02:06;;;;;;;;;;;;;;;21.61;64.85;100216.00;5130279;27;1301;-69
2021/05/11 01:04:51;;;;;;;;;;;;;;;21.61;64.87;100209.88;5129759;27;1278;-70
2021/05/11 01:07:35;;;;;;;;;;;;;;;21.61;65.22;100207.22;5130312;27;1051;-70
2021/05/11 01:10:20;;;;;;;;;;;;;;;21.61;65.01;100207.22;5114648;27;1291;-70
2021/05/11 01:13:05;;;;;;;;;;;;;;;21.59;65.04;100204.69;5130710;27;940;-69
2021/05/11 01:15:51;;;;;;;;;;;;;;;21.61;65.14;100199.28;5114776;27;1358;-70
2021/05/11 01:18:37;;;;;;;;;;;;;;;21.60;64.99;100197.59;5130637;27;1901;-70
2021/05/11 01:24:16;;;;;;;;;;;;;;;21.58;64.98;100200.34;5130024;27;753;-73
2021/05/11 01:27:14;;;;;;;;;;;;;;;21.58;65.03;100191.56;5130368;27;1267;-72
2021/05/11 01:50:46;;;;;;;;;;;;;;;21.54;64.61;100172.41;5129926;27;1288;-71
2021/05/11 02:23:40;;;;;;;;;;;;;;;21.51;64.46;100177.09;5154610;27;1041;-70
2021/05/11 02:26:25;;;;;;;;;;;;;;;21.51;64.81;100183.25;5153891;27;1250;-70
2021/05/11 02:29:10;;;;;;;;;;;;;;;21.50;64.76;100178.88;5154204;27;721;-70
2021/05/11 02:31:54;;;;;;;;;;;;;;;21.51;64.54;100182.38;5154142;27;1347;-70
2021/05/11 02:34:39;;;;;;;;;;;;;;;21.49;64.24;100186.97;5154133;27;675;-70
2021/05/11 02:37:24;;;;;;;;;;;;;;;21.49;64.76;100184.31;5138294;27;1070;-70
2021/05/11 02:40:10;;;;;;;;;;;;;;;21.49;64.40;100185.16;5138323;27;1294;-71
2021/05/11 02:43:02;;;;;;;;;;;;;;;21.50;64.64;100186.00;5154482;27;1151;-70
2021/05/11 02:45:47;;;;;;;;;;;;;;;21.50;64.52;100193.94;5138776;27;1322;-70
2021/05/11 02:48:32;;;;;;;;;;;;;;;21.49;64.24;100190.44;5154357;27;1631;-72
2021/05/11 02:51:17;;;;;;;;;;;;;;;21.48;64.40;100188.78;5153942;27;1312;-70
2021/05/11 02:54:02;;;;;;;;;;;;;;;21.50;64.24;100193.94;5154415;27;1085;-71
2021/05/11 02:56:46;;;;;;;;;;;;;;;21.49;64.39;100206.34;5153432;27;1300;-71
2021/05/11 02:59:32;;;;;;;;;;;;;;;21.49;64.49;100205.53;5153999;27;1938;-70
2021/05/11 03:02:17;;;;;;;;;;;;;;;21.48;64.27;100206.47;5153822;27;946;-70
2021/05/11 03:05:02;;;;;;;;;;;;;;;21.47;64.26;100208.28;5154122;27;1287;-70
2021/05/11 03:07:47;;;;;;;;;;;;;;;21.48;64.69;100207.31;5154070;27;1102;-71
2021/05/11 03:10:32;;;;;;;;;;;;;;;21.47;64.46;100210.06;5137692;27;1374;-73
2021/05/11 03:13:17;;;;;;;;;;;;;;;21.48;64.76;100209.13;5153735;27;1064;-71
2021/05/11 03:16:02;;;;;;;;;;;;;;;21.47;64.53;100207.44;5153524;27;1268;-69
2021/05/11 03:18:47;;;;;;;;;;;;;;;21.46;64.30;100209.22;5153743;27;1933;-71
2021/05/11 03:21:32;;;;;;;;;;;;;;;21.45;64.43;100204.91;5137814;27;1216;-71
2021/05/11 03:24:21;;;;;;;;;;;;;;;21.45;64.49;100204.91;5153754;27;678;-71
2021/05/11 03:27:06;;;;;;;;;;;;;;;21.45;64.15;100210.22;5137352;27;1357;-71
2021/05/11 03:29:51;;;;;;;;;;;;;;;21.44;64.49;100203.22;5137428;27;1415;-72
2021/05/11 03:32:36;;;;;;;;;;;;;;;21.45;64.39;100204.06;5137251;27;1204;-71
2021/05/11 03:35:21;;;;;;;;;;;;;;;21.45;64.26;100204.91;5152842;27;1396;-70
2021/05/11 03:38:07;;;;;;;;;;;;;;;21.45;64.52;100201.41;5152586;27;1980;-70
2021/05/11 03:40:52;;;;;;;;;;;;;;;21.45;64.55;100198.75;5152336;27;1303;-72
2021/05/11 03:43:48;;;;;;;;;;;;;;;21.44;64.13;100202.38;5153154;27;1046;-70
2021/05/11 03:46:34;;;;;;;;;;;;;;;21.44;64.23;100199.72;5152793;27;1263;-69
2021/05/11 03:49:19;;;;;;;;;;;;;;;21.43;64.56;100201.50;5137055;27;1316;-70
2021/05/11 03:52:05;;;;;;;;;;;;;;;21.43;64.24;100195.41;5136788;27;1305;-69
2021/05/11 03:54:51;;;;;;;;;;;;;;;21.42;64.17;100205.16;5152786;27;1345;-70
2021/05/11 03:57:36;;;;;;;;;;;;;;;21.42;64.55;100193.69;5136738;27;1178;-71
2021/05/11 04:00:22;;;;;;;;;;;;;;;21.42;64.52;100193.69;5152696;27;1361;-71
2021/05/11 04:03:07;;;;;;;;;;;;;;;21.41;64.19;100200.78;5152518;27;966;-70
2021/05/11 04:05:54;;;;;;;;;;;;;;;21.41;64.45;100207.91;5136486;27;1369;-70
2021/05/11 04:08:59;;;;;;;;;;;;;;;21.41;64.06;100199.94;5152951;27;954;-70
2021/05/11 04:17:34;;;;;;;;;;;;;;;21.41;64.35;100218.50;5132443;27;1000;-70
2021/05/11 04:20:19;;;;;;;;;;;;;;;21.41;64.20;100223.78;5131482;27;1905;-69
2021/05/11 04:23:05;;;;;;;;;;;;;;;21.39;64.46;100220.44;5136150;27;1032;-70
2021/05/11 04:25:50;;;;;;;;;;;;;;;21.38;64.17;100219.56;5152139;27;1254;-73
2021/05/11 04:28:36;;;;;;;;;;;;;;;21.39;64.21;100215.13;5152232;27;1075;-71
2021/05/11 04:31:24;;;;;;;;;;;;;;;21.38;64.16;100208.13;5118691;27;1279;-71
2021/05/11 04:34:09;;;;;;;;;;;;;;;21.38;64.23;100210.78;5115458;27;666;-72
2021/05/11 04:36:54;;;;;;;;;;;;;;;21.37;63.94;100214.41;5131077;27;1286;-71
2021/05/11 04:39:40;;;;;;;;;;;;;;;21.37;64.12;100219.72;5130422;27;1901;-70
2021/05/11 04:42:25;;;;;;;;;;;;;;;21.37;64.02;100217.06;5131680;27;991;-69
2021/05/11 04:45:11;;;;;;;;;;;;;;;21.36;64.02;100216.22;5130994;27;1274;-71
2021/05/11 04:47:57;;;;;;;;;;;;;;;21.35;63.92;100221.59;5115450;27;1548;-71
2021/05/11 04:50:43;;;;;;;;;;;;;;;21.35;64.30;100216.31;5115482;27;1341;-70
2021/05/11 04:53:28;;;;;;;;;;;;;;;21.36;64.14;100216.22;5115012;27;1055;-71
2021/05/11 04:56:13;;;;;;;;;;;;;;;21.36;63.94;100215.34;5130883;27;1268;-70
2021/05/11 04:58:59;;;;;;;;;;;;;;;21.35;64.14;100225.09;5130667;27;1905;-70
2021/05/11 05:01:45;;;;;;;;;;;;;;;21.34;63.89;100228.72;5130600;27;1280;-70
2021/05/11 05:04:33;;;;;;;;;;;;;;;21.34;63.95;100223.41;5115216;27;623;-71
2021/05/11 05:07:19;;;;;;;;;;;;;;;21.34;64.03;100226.06;5130588;27;924;-70
2021/05/11 05:10:05;;;;;;;;;;;;;;;21.34;64.57;100222.59;5130193;27;1239;-71
2021/05/11 05:12:50;;;;;;;;;;;;;;;21.33;64.26;100228.84;5130525;27;1069;-70
2021/05/11 05:15:36;;;;;;;;;;;;;;;21.34;64.18;100227.88;5114763;27;1275;-70
2021/05/11 05:18:22;;;;;;;;;;;;;;;21.33;64.43;100242.09;5114714;27;1906;-69
2021/05/11 05:21:08;;;;;;;;;;;;;;;21.37;64.52;100243.56;5130172;27;1462;-72
2021/05/11 05:24:02;;;;;;;;;;;;;;;21.47;64.34;100249.81;5139210;27;1106;-73
2021/05/11 05:26:51;;;;;;;;;;;;;;;21.41;63.96;100245.00;5114900;27;1247;-70
2021/05/11 05:29:36;;;;;;;;;;;;;;;21.38;63.60;100238.13;5115212;27;745;-76
2021/05/11 05:32:22;;;;;;;;;;;;;;;21.37;63.53;100239.06;5114675;27;989;-72
2021/05/11 05:35:08;;;;;;;;;;;;;;;21.37;63.86;100238.25;5128308;27;1330;-70
2021/05/11 05:37:59;;;;;;;;;;;;;;;21.37;63.94;100244.38;5114544;27;1080;-72
2021/05/11 05:40:44;;;;;;;;;;;;;;;21.43;64.20;100240.44;5129511;27;1267;-69
2021/05/11 05:43:30;;;;;;;;;;;;;;;21.44;64.40;100250.91;5113676;27;1163;-69
2021/05/11 05:46:16;;;;;;;;;;;;;;;21.44;64.04;100245.59;5129152;27;1279;-70
2021/05/11 05:49:02;;;;;;;;;;;;;;;21.49;63.45;100245.28;5128997;27;1561;-71
2021/05/11 05:51:50;;;;;;;;;;;;;;;21.43;62.65;100248.38;5127594;27;1281;-71
2021/05/11 05:54:35;;;;;;;;;;;;;;;21.37;62.26;100241.72;5128666;28;694;-73
2021/05/11 05:57:21;;;;;;;;;;;;;;;21.37;62.50;100248.84;5128921;28;1060;-69
2021/05/11 06:00:07;;;;;;;;;;;;;;;21.38;62.68;100245.22;5128815;28;1902;-69
2021/05/11 06:02:54;;;;;;;;;;;;;;;21.57;63.74;100261.41;5129580;28;1041;-70
2021/05/11 06:05:40;;;;;;;;;;;;;;;21.33;62.30;100257.97;5129751;28;1366;-69
2021/05/11 06:08:26;;;;;;;;;;;;;;;21.34;62.92;100265.78;5129886;28;952;-72
2021/05/11 06:19:55;;;;;;;;;;;;;;;21.30;61.62;100279.41;5129294;28;1893;-72
2021/05/11 06:22:40;;;;;;;;;;;;;;;21.29;62.10;100269.75;5129672;28;1100;-72
2021/05/11 06:25:26;;;;;;;;;;;;;;;21.45;60.79;100276.44;5132716;27;1997;-71
2021/05/11 06:28:12;;;;;;;;;;;;;;;21.12;52.59;100273.69;5139487;27;1126;-69
2021/05/11 06:30:58;;;;;;;;;;;;;;;20.92;48.81;100280.38;5111419;28;1394;-72
2021/05/11 06:33:43;;;;;;;;;;;;;;;20.84;46.76;100295.16;5135868;27;1133;-69
2021/05/11 06:36:29;;;;;;;;;;;;;;;20.72;46.07;100267.78;5147718;27;1317;-70
2021/05/11 06:39:27;;;;;;;;;;;;;;;20.73;45.62;100293.28;5133618;27;1992;-72
2021/05/11 06:42:12;;;;;;;;;;;;;;;20.65;45.07;100288.53;5138660;27;1207;-69
2021/05/11 06:45:42;;;;;;;;;;;;;;;20.78;44.38;100298.25;5127059;28;1331;-68
2021/05/11 06:48:26;;;;;;;;;;;;;;;20.96;46.33;100308.34;5128696;27;1604;-69
2021/05/11 06:53:57;;;;;;;;;;;;;;;20.98;52.95;100317.00;5140774;27;1103;-71
2021/05/11 06:56:46;;;;;;;;;;;;;;;21.10;51.14;100318.78;5127382;28;1279;-73
2021/05/11 06:59:32;;;;;;;;;;;;;;;21.02;52.29;100323.78;5138051;27;1898;-72
2021/05/11 07:02:17;;;;;;;;;;;;;;;20.98;52.63;100321.44;5133278;27;945;-72
2021/05/11 07:05:03;;;;;;;;;;;;;;;20.98;52.98;100340.84;5151899;27;1275;-72
2021/05/11 07:08:07;;;;;;;;;;;;;;;20.99;53.19;100344.34;5152386;27;1052;-72
2021/05/11 07:10:55;;;;;;;;;;;;;;;21.00;53.91;100349.53;5136157;27;1354;-69
2021/05/11 07:13:42;;;;;;;;;;;;;;;21.12;54.26;100348.69;5151333;27;937;-73
2021/05/11 07:16:40;;;;;;;;;;;;;;;21.11;53.96;100349.63;5151909;27;1374;-77
2021/05/11 07:19:28;;;;;;;;;;;;;;;21.10;53.97;100358.53;5136436;27;1957;-77
2021/05/11 07:22:13;;;;;;;;;;;;;;;21.06;54.12;100357.03;5151986;27;1065;-77
2021/05/11 07:24:59;;;;;;;;;;;;;;;21.06;54.16;100362.34;5151355;27;1231;-77
2021/05/11 07:28:32;;;;;;;;;;;;;;;21.06;54.37;100361.50;5151823;27;1051;-77
2021/05/11 07:30:53;;;;;;;;;;;;;;;21.10;55.29;100369.13;5145487;27;1579;-71
2021/05/11 07:33:47;;;;;;;;;;;;;;;21.11;55.26;100376.13;5140033;27;1144;-71
2021/05/11 07:36:33;;;;;;;;;;;;;;;21.09;55.21;100367.44;5149601;27;1406;-71
2021/05/11 07:39:20;;;;;;;;;;;;;;;21.08;55.28;100370.16;5135804;27;1966;-70
2021/05/11 07:42:06;;;;;;;;;;;;;;;21.07;55.53;100382.53;5151426;27;1283;-71
2021/05/11 07:44:57;;;;;;;;;;;;;;;21.08;55.44;100381.63;5151483;27;1334;-71
2021/05/11 08:15:23;;;;;;;;;;;;;;;21.07;56.20;100427.56;5129375;27;1219;-73
2021/05/11 08:18:23;;;;;;;;;;;;;;;21.07;56.22;100424.91;5114581;27;1081;-70
2021/05/11 08:30:17;;;;;;;;;;;;;;;21.05;55.79;100441.88;5130093;27;1322;-70
2021/05/11 08:33:03;;;;;;;;;;;;;;;21.03;56.07;100442.00;5135996;27;1169;-70
2021/05/11 08:35:49;;;;;;;;;;;;;;;21.04;55.64;100433.09;5149941;27;1275;-72
2021/05/11 08:38:34;;;;;;;;;;;;;;;21.05;55.69;100442.72;5150474;27;1051;-72
2021/05/11 08:41:20;;;;;;;;;;;;;;;21.04;56.01;100443.69;5134484;27;1953;-72
2021/05/11 08:44:07;;;;;;;;;;;;;;;21.04;55.85;100448.13;5149880;27;999;-72
2021/05/11 08:46:53;;;;;;;;;;;;;;;21.05;56.10;100447.19;5150284;27;1326;-72
2021/05/11 08:49:40;;;;;;;;;;;;;;;21.05;55.93;100448.03;5128784;27;1360;-73
2021/05/11 08:52:57;;;;;;;;;;;;;;;21.06;55.67;100446.22;5127908;27;1437;-72
2021/05/11 09:26:30;;;;;;;;;;;;;;;21.20;55.99;100486.69;5108472;28;1291;-73
2021/05/11 10:38:21;;;;;;;;;;;;;;;21.03;45.38;100552.38;5103376;28;1327;-73
2021/05/11 10:40:21;;;;;;;;;;;;;;;20.97;44.52;100553.66;5108519;28;1902;-73
2021/05/11 10:46:41;;;;;;;;;;;;;;;20.98;44.05;100576.50;5112176;27;1522;-67
2021/05/11 10:49:34;;;;;;;;;;;;;;;21.01;43.98;100565.72;5124919;27;1171;-70
2021/05/11 10:52:43;;;;;;;;;;;;;;;21.01;43.03;100563.06;5132382;27;1076;-69
2021/05/11 10:55:31;;;;;;;;;;;;;;;21.03;42.86;100570.91;5131870;27;1258;-70
2021/05/11 10:58:20;;;;;;;;;;;;;;;21.04;42.13;100567.28;5132042;27;1089;-69
2021/05/11 11:01:09;;;;;;;;;;;;;;;21.09;42.82;100570.53;5138572;27;1905;-67
2021/05/11 11:04:09;;;;;;;;;;;;;;;21.11;42.79;100565.94;5139542;27;1066;-70
2021/05/11 11:07:01;;;;;;;;;;;;;;;21.15;43.76;100578.91;5141145;27;1401;-70
2021/05/11 11:09:57;;;;;;;;;;;;;;;21.11;42.64;100577.41;5132264;27;1516;-69
2021/05/11 11:12:42;;;;;;;;;;;;;;;21.12;41.77;100579.09;5151042;27;1030;-69
2021/05/11 11:15:28;;;;;;;;;;;;;;;21.16;43.62;100580.56;5151536;27;1346;-73
2021/05/11 11:18:20;;;;;;;;;;;;;;;21.11;41.54;100581.84;5151691;27;1080;-72
2021/05/11 11:24:04;;;;;;;;;;;;;;;21.19;44.17;100595.41;5130447;27;1131;-67
2021/05/11 11:26:51;;;;;;;;;;;;;;;21.13;43.48;100591.38;5130012;27;1247;-70
2021/05/11 11:29:36;;;;;;;;;;;;;;;21.11;42.43;100588.00;5149751;27;1552;-69
2021/05/11 11:32:22;;;;;;;;;;;;;;;21.12;42.16;100602.94;5150709;27;930;-69
2021/05/11 11:35:08;;;;;;;;;;;;;;;21.20;43.35;100608.53;5130131;27;1236;-70
2021/05/11 11:37:55;;;;;;;;;;;;;;;21.12;41.17;100594.16;5130090;27;1058;-69
2021/05/11 11:40:40;;;;;;;;;;;;;;;21.12;41.78;100596.78;5131084;27;1901;-69
2021/05/11 11:43:30;;;;;;;;;;;;;;;21.17;42.80;100597.31;5116178;27;1162;-73
2021/05/11 11:46:23;;;;;;;;;;;;;;;21.25;44.54;100616.16;5137457;27;1703;-71
2021/05/11 11:49:12;;;;;;;;;;;;;;;21.22;44.94;100611.94;5130473;27;1291;-79
2021/05/11 11:52:13;;;;;;;;;;;;;;;21.20;44.07;100605.91;5130236;27;1418;-80
2021/05/11 11:57:55;;;;;;;;;;;;;;;21.22;44.92;100619.03;5137314;27;1522;-72
2021/05/11 12:00:40;;;;;;;;;;;;;;;21.29;44.91;100632.69;5150299;27;1949;-68
2021/05/11 12:03:26;;;;;;;;;;;;;;;21.38;44.82;100619.66;5120021;27;1700;-74
2021/05/11 12:06:24;;;;;;;;;;;;;;;21.47;46.28;100637.56;5140753;27;1381;-63
2021/05/11 12:09:09;;;;;;;;;;;;;;;21.52;47.98;100640.72;5147399;27;639;-63
2021/05/11 12:11:55;;;;;;;;;;;;;;;21.52;48.86;100619.53;5130514;27;1295;-65
2021/05/11 12:14:40;;;;;;;;;;;;;;;21.55;48.59;100635.22;5114955;27;651;-66
2021/05/11 12:17:32;;;;;;;;;;;;;;;21.57;50.70;100635.13;5130093;27;957;-63
2021/05/11 12:20:21;;;;;;;;;;;;;;;21.55;50.77;100615.84;5131105;27;1972;-68
2021/05/11 12:23:14;;;;;;;;;;;;;;;21.49;52.72;100614.44;5131460;27;1152;-64
2021/05/11 12:26:06;;;;;;;;;;;;;;;21.59;52.24;100625.25;5132211;27;1381;-67
2021/05/11 12:29:04;;;;;;;;;;;;;;;21.61;51.58;100612.75;5136501;27;1065;-68
2021/05/11 12:31:49;;;;;;;;;;;;;;;21.63;53.87;100614.34;5131713;27;1283;-70
2021/05/11 12:34:36;;;;;;;;;;;;;;;21.58;51.32;100626.22;5137464;27;1192;-72
2021/05/11 12:37:22;;;;;;;;;;;;;;;21.56;52.20;100622.81;5139089;27;1089;-73
2021/05/11 12:40:20;;;;;;;;;;;;;;;21.53;50.22;100621.22;5140115;27;2044;-69
2021/05/11 12:43:05;;;;;;;;;;;;;;;21.54;49.55;100627.38;5139980;27;1109;-72
2021/05/11 12:45:52;;;;;;;;;;;;;;;21.52;50.46;100634.63;5124725;27;1323;-71
2021/05/11 12:48:48;;;;;;;;;;;;;;;21.51;50.54;100636.41;5138993;27;1549;-72
2021/05/11 12:51:40;;;;;;;;;;;;;;;21.62;48.91;100633.00;5140811;27;1298;-71
2021/05/11 12:54:55;;;;;;;;;;;;;;;21.59;52.09;100633.19;5140118;27;1070;-71
2021/05/11 12:57:53;;;;;;;;;;;;;;;21.57;53.20;100637.78;5116624;27;1145;-72
2021/05/11 13:00:46;;;;;;;;;;;;;;;21.54;54.23;100622.94;5138352;27;1987;-71
2021/05/11 13:03:57;;;;;;;;;;;;;;;21.56;53.15;100620.16;5135003;27;1307;-71
2021/05/11 13:16:15;;;;;;;;;;;;;;;21.64;53.70;100645.16;5137126;27;1255;-72
2021/05/11 13:28:17;;;;;;;;;;;;;;;21.65;53.52;100672.53;5136136;27;1140;-70
2021/05/11 13:31:06;;;;;;;;;;;;;;;21.62;54.37;100664.78;5138530;27;1349;-71
2021/05/11 13:36:48;;;;;;;;;;;;;;;21.59;51.96;100673.81;5138611;27;1291;-68
2021/05/11 13:39:33;;;;;;;;;;;;;;;21.60;50.38;100666.72;5123834;27;1101;-71
2021/05/11 13:42:19;;;;;;;;;;;;;;;21.61;50.48;100671.88;5139733;27;1906;-70
2021/05/11 13:45:06;;;;;;;;;;;;;;;21.61;49.86;100679.03;5122433;27;1512;-70
2021/05/11 13:48:03;;;;;;;;;;;;;;;21.61;48.96;100673.72;5136532;27;1279;-70
2021/05/11 13:53:57;;;;;;;;;;;;;;;21.60;50.08;100685.28;5139865;27;1081;-69
2021/05/11 14:02:50;;;;;;;;;;;;;;;21.61;52.04;100703.69;5139032;27;1065;-71
2021/05/11 14:05:36;;;;;;;;;;;;;;;21.78;53.04;100723.75;5120877;27;1374;-70
2021/05/11 14:08:23;;;;;;;;;;;;;;;21.84;51.17;100720.66;5121432;27;1101;-72
2021/05/11 14:11:08;;;;;;;;;;;;;;;21.74;50.43;100720.47;5136657;27;1352;-73
2021/05/11 14:13:54;;;;;;;;;;;;;;;21.68;50.61;100715.59;5124384;27;1062;-75
2021/05/11 14:16:41;;;;;;;;;;;;;;;21.66;51.90;100724.59;5127264;27;1434;-73
2021/05/11 14:19:30;;;;;;;;;;;;;;;21.67;52.94;100713.06;5137411;27;1247;-73
2021/05/11 14:22:15;;;;;;;;;;;;;;;21.67;52.35;100718.34;5143810;27;1909;-72
2021/05/11 14:25:01;;;;;;;;;;;;;;;21.63;51.46;100723.03;5124773;27;1261;-73
2021/05/11 14:27:46;;;;;;;;;;;;;;;21.64;51.40;100782.19;5142169;27;1176;-72
2021/05/11 14:30:32;;;;;;;;;;;;;;;21.62;51.70;100786.72;5141178;27;1353;-73
2021/05/11 14:33:18;;;;;;;;;;;;;;;21.59;51.68;100782.50;5141267;27;1071;-72
2021/05/11 14:36:04;;;;;;;;;;;;;;;21.57;52.04;100791.50;5140561;27;1393;-73
2021/05/11 14:38:49;;;;;;;;;;;;;;;21.57;51.62;100807.41;5141549;27;1067;-72
2021/05/11 14:41:35;;;;;;;;;;;;;;;21.58;52.45;100825.84;5142783;27;1971;-74
2021/05/11 14:44:22;;;;;;;;;;;;;;;21.57;52.13;100800.31;5125172;27;1232;-73
2021/05/11 14:47:08;;;;;;;;;;;;;;;21.57;52.51;100810.06;5125645;27;1370;-70
2021/05/11 14:49:53;;;;;;;;;;;;;;;21.53;51.82;100824.47;5142546;27;1266;-73
2021/05/11 14:52:39;;;;;;;;;;;;;;;21.50;51.54;100827.31;5126896;27;1006;-72
2021/05/11 14:55:25;;;;;;;;;;;;;;;21.49;51.64;100837.06;5140974;27;1251;-72
2021/05/11 14:58:11;;;;;;;;;;;;;;;21.46;50.93;100847.06;5141453;27;1117;-72
2021/05/11 15:00:56;;;;;;;;;;;;;;;21.46;51.32;100839.09;5143250;27;1953;-73
2021/05/11 15:03:41;;;;;;;;;;;;;;;21.44;51.69;100836.53;5140609;27;1285;-72
2021/05/11 15:06:36;;;;;;;;;;;;;;;21.44;51.03;100839.19;5142809;27;1223;-75
2021/05/11 15:09:22;;;;;;;;;;;;;;;21.44;50.79;100843.63;5141498;27;1106;-75
2021/05/11 15:12:08;;;;;;;;;;;;;;;21.40;50.40;100850.09;5141587;27;1275;-72
2021/05/11 15:14:53;;;;;;;;;;;;;;;21.41;50.36;100851.78;5112911;27;1389;-70
2021/05/11 15:20:24;;;;;;;;;;;;;;;21.37;50.05;100869.69;5137442;27;1299;-72
2021/05/11 15:23:22;;;;;;;;;;;;;;;21.35;49.77;100873.38;5140394;27;1022;-70
2021/05/11 15:26:08;;;;;;;;;;;;;;;21.32;49.85;100878.88;5141913;27;1378;-71
2021/05/11 15:28:53;;;;;;;;;;;;;;;21.27;48.98;100875.69;5126200;27;1194;-71
2021/05/11 15:31:39;;;;;;;;;;;;;;;21.25;48.54;100863.41;5125835;27;1315;-72
2021/05/11 15:34:25;;;;;;;;;;;;;;;21.25;48.76;100867.84;5141582;27;1195;-70
2021/05/11 15:37:17;;;;;;;;;;;;;;;21.25;48.79;100868.69;5127134;27;1157;-71
2021/05/11 15:40:03;;;;;;;;;;;;;;;21.21;48.42;100869.00;5141709;27;1277;-72
2021/05/11 15:42:49;;;;;;;;;;;;;;;21.21;47.96;100882.25;5139443;27;1949;-71
2021/05/11 15:45:35;;;;;;;;;;;;;;;21.19;47.86;100892.06;5140195;27;1265;-70
2021/05/11 15:48:21;;;;;;;;;;;;;;;21.11;47.70;100892.59;5122785;27;1735;-71
2021/05/11 15:51:06;;;;;;;;;;;;;;;21.14;48.16;100889.75;5126097;27;1311;-74
2021/05/11 15:53:56;;;;;;;;;;;;;;;21.13;47.57;100897.78;5139913;27;1022;-68
2021/05/11 15:56:43;;;;;;;;;;;;;;;21.13;47.75;100901.28;5140526;27;1295;-73
2021/05/11 15:59:28;;;;;;;;;;;;;;;21.11;47.54;100899.69;5141102;27;1138;-73
2021/05/11 16:02:14;;;;;;;;;;;;;;;21.14;48.20;100903.00;5125204;27;1917;-72
2021/05/11 16:04:59;;;;;;;;;;;;;;;21.18;47.41;100901.00;5139993;27;1278;-69
2021/05/11 16:07:45;;;;;;;;;;;;;;;21.21;48.00;100904.31;5140970;27;1062;-71
2021/05/11 16:10:31;;;;;;;;;;;;;;;21.26;47.58;100911.94;5133588;27;1385;-70
2021/05/11 16:13:20;;;;;;;;;;;;;;;21.29;47.48;100914.38;5140029;27;1053;-69
2021/05/11 16:16:06;;;;;;;;;;;;;;;21.33;47.49;100923.00;5141870;27;1282;-70
2021/05/11 16:18:51;;;;;;;;;;;;;;;21.40;47.25;100926.94;5122971;27;1107;-69
2021/05/11 16:21:37;;;;;;;;;;;;;;;21.35;47.19;100923.72;5140086;27;1910;-72
2021/05/11 16:24:22;;;;;;;;;;;;;;;21.42;47.30;100930.34;5140568;27;1114;-68
2021/05/11 16:27:07;;;;;;;;;;;;;;;21.36;46.66;100920.13;5141237;27;1275;-68
2021/05/11 16:29:53;;;;;;;;;;;;;;;21.35;46.98;100934.34;5133619;27;1427;-68
2021/05/11 16:32:39;;;;;;;;;;;;;;;21.34;46.78;100938.78;5139932;27;1060;-69
2021/05/11 16:35:24;;;;;;;;;;;;;;;21.32;46.80;100940.69;5124521;27;1370;-70
2021/05/11 16:38:11;;;;;;;;;;;;;;;21.29;46.84;100940.03;5124726;27;1161;-69
2021/05/11 16:40:56;;;;;;;;;;;;;;;21.31;47.28;100938.16;5125611;27;1897;-70
2021/05/11 16:43:42;;;;;;;;;;;;;;;21.27;47.18;100945.44;5137693;27;1175;-67
2021/05/11 16:46:27;;;;;;;;;;;;;;;21.24;46.90;100943.00;5137173;27;1315;-69
2021/05/11 16:49:13;;;;;;;;;;;;;;;21.24;47.14;100930.59;5124864;27;1702;-69
2021/05/11 16:51:58;;;;;;;;;;;;;;;21.21;47.07;100938.75;5136995;27;1370;-70
2021/05/11 16:54:44;;;;;;;;;;;;;;;21.25;47.48;100942.00;5124561;27;1066;-74
2021/05/11 16:57:29;;;;;;;;;;;;;;;21.24;47.42;100946.50;5136322;27;1229;-66
2021/05/11 17:00:17;;;;;;;;;;;;;;;21.24;47.22;100949.16;5138415;27;1263;-69
2021/05/11 17:03:03;;;;;;;;;;;;;;;21.23;47.73;100949.22;5124214;27;1898;-72
2021/05/11 17:05:48;;;;;;;;;;;;;;;21.20;47.75;100937.03;5139579;27;1381;-71
2021/05/11 17:08:34;;;;;;;;;;;;;;;21.17;47.02;100939.03;5124327;27;1184;-72
2021/05/11 17:11:20;;;;;;;;;;;;;;;21.18;47.17;100943.38;5138520;27;1417;-71
2021/05/11 17:14:07;;;;;;;;;;;;;;;21.15;47.41;100939.13;5124282;27;1145;-69
2021/05/11 17:16:52;;;;;;;;;;;;;;;21.16;47.32;100946.13;5139486;27;1428;-70
2021/05/11 17:19:39;;;;;;;;;;;;;;;21.14;47.63;100939.22;5138058;27;1120;-69
2021/05/11 17:22:25;;;;;;;;;;;;;;;21.09;47.08;100934.22;5136024;27;1968;-71
2021/05/11 17:25:11;;;;;;;;;;;;;;;21.08;46.93;100934.28;5139113;27;1283;-73
2021/05/11 17:27:59;;;;;;;;;;;;;;;21.10;47.35;100941.22;5124141;27;1095;-72
2021/05/11 17:30:46;;;;;;;;;;;;;;;21.11;47.32;100957.94;5137529;27;1251;-72
2021/05/11 17:33:32;;;;;;;;;;;;;;;21.05;47.21;100967.09;5138955;27;1121;-73
2021/05/11 17:36:18;;;;;;;;;;;;;;;21.08;47.50;100974.00;5139193;27;1368;-70
2021/05/11 17:39:05;;;;;;;;;;;;;;;21.05;47.12;100968.91;5138170;27;1058;-71
2021/05/11 17:41:50;;;;;;;;;;;;;;;21.03;47.80;100973.47;5139147;27;2006;-69
2021/05/11 17:44:37;;;;;;;;;;;;;;;21.04;47.47;100972.50;5139428;27;1074;-70
2021/05/11 17:47:22;;;;;;;;;;;;;;;21.06;47.91;100979.41;5117777;27;1138;-72
2021/05/11 17:50:07;;;;;;;;;;;;;;;21.07;47.53;100989.03;5138162;27;1539;-71
2021/05/11 17:52:54;;;;;;;;;;;;;;;21.00;47.25;100977.16;5138741;27;931;-69
2021/05/11 17:55:40;;;;;;;;;;;;;;;20.98;46.91;100986.97;5139370;27;1277;-71
2021/05/11 17:58:25;;;;;;;;;;;;;;;21.00;47.47;100992.19;5137206;27;1038;-69
2021/05/11 18:01:10;;;;;;;;;;;;;;;20.96;46.86;101001.25;5137832;27;1417;-72
2021/05/11 18:03:56;;;;;;;;;;;;;;;20.92;47.03;100994.44;5136591;27;1014;-69
2021/05/11 18:06:41;;;;;;;;;;;;;;;20.97;47.34;100998.53;5117582;27;1487;-73
2021/05/11 18:09:26;;;;;;;;;;;;;;;21.00;49.38;101011.59;5137120;27;1126;-73
2021/05/11 18:12:12;;;;;;;;;;;;;;;20.98;47.18;101016.09;5138172;27;1232;-72
2021/05/11 18:14:57;;;;;;;;;;;;;;;20.92;47.53;101016.47;5137413;27;1275;-73
2021/05/11 18:17:42;;;;;;;;;;;;;;;21.00;47.51;101021.31;5118092;27;1236;-72
2021/05/11 18:20:28;;;;;;;;;;;;;;;21.09;48.70;101018.13;5137651;27;1262;-65
2021/05/11 18:23:13;;;;;;;;;;;;;;;21.13;48.68;101024.91;5138768;27;1994;-67
2021/05/11 18:25:58;;;;;;;;;;;;;;;21.27;49.57;101029.38;5139387;27;1271;-69
2021/05/11 18:28:44;;;;;;;;;;;;;;;21.14;48.44;101037.22;5123033;27;1347;-68
2021/05/11 18:31:29;;;;;;;;;;;;;;;21.07;47.42;101035.88;5137691;27;1277;-67
2021/05/11 18:34:15;;;;;;;;;;;;;;;21.02;47.36;101041.47;5138654;27;1109;-67
2021/05/11 18:37:07;;;;;;;;;;;;;;;21.08;47.99;101046.41;5123980;27;1315;-68
2021/05/11 18:39:53;;;;;;;;;;;;;;;20.98;48.72;101047.88;5138988;27;1279;-71
2021/05/11 18:42:38;;;;;;;;;;;;;;;21.00;48.87;101050.44;5140075;27;2398;-68